sensor_id;sensor_type;location;lat;lon;timestamp;temperature;humidity
32865;DHT22;19219;44.500;11.188;2022-11-20T00:02:08;10.10;99.90
32865;DHT22;19219;44.500;11.188;2022-11-20T00:04:33;10.20;99.90
32865;DHT22;19219;44.500;11.188;2022-11-20T00:06:59;10.20;99.90
32865;DHT22;19219;44.500;11.188;2022-11-20T00:09:24;10.10;99.90
32865;DHT22;19219;44.500;11.188;2022-11-20T00:11:50;10.20;99.90
32865;DHT22;19219;44.500;11.188;2022-11-20T00:14:15;10.20;99.90
32865;DHT22;19219;44.500;11.188;2022-11-20T00:16:41;10.10;99.90
32865;DHT22;19219;44.500;11.188;2022-11-20T00:19:07;10.10;99.90
32865;DHT22;19219;44.500;11.188;2022-11-20T00:21:32;10.20;99.90
32865;DHT22;19219;44.500;11.188;2022-11-20T00:23:58;10.10;99.90
32865;DHT22;19219;44.500;11.188;2022-11-20T00:26:24;10.20;99.90
32865;DHT22;19219;44.500;11.188;2022-11-20T00:28:51;10.20;99.90
32865;DHT22;19219;44.500;11.188;2022-11-20T00:31:17;10.20;99.90
32865;DHT22;19219;44.500;11.188;2022-11-20T00:33:43;10.10;99.90
32865;DHT22;19219;44.500;11.188;2022-11-20T00:36:18;10.10;99.90
32865;DHT22;19219;44.500;11.188;2022-11-20T00:38:44;10.10;99.90
32865;DHT22;19219;44.500;11.188;2022-11-20T00:41:10;10.20;99.90
32865;DHT22;19219;44.500;11.188;2022-11-20T00:43:37;10.20;99.90
32865;DHT22;19219;44.500;11.188;2022-11-20T00:48:28;10.10;99.90
32865;DHT22;19219;44.500;11.188;2022-11-20T00:50:54;10.10;99.90
32865;DHT22;19219;44.500;11.188;2022-11-20T00:53:20;10.10;99.90
32865;DHT22;19219;44.500;11.188;2022-11-20T00:55:52;10.10;99.90
32865;DHT22;19219;44.500;11.188;2022-11-20T00:58:17;10.10;99.90
32865;DHT22;19219;44.500;11.188;2022-11-20T01:00:43;10.10;99.90
32865;DHT22;19219;44.500;11.188;2022-11-20T01:03:08;10.10;99.90
32865;DHT22;19219;44.500;11.188;2022-11-20T01:05:34;10.10;99.90
32865;DHT22;19219;44.500;11.188;2022-11-20T01:08:00;10.10;99.90
32865;DHT22;19219;44.500;11.188;2022-11-20T01:10:26;10.10;99.90
32865;DHT22;19219;44.500;11.188;2022-11-20T01:12:51;10.10;99.90
32865;DHT22;19219;44.500;11.188;2022-11-20T01:15:37;10.00;99.90
32865;DHT22;19219;44.500;11.188;2022-11-20T01:18:02;10.00;99.90
32865;DHT22;19219;44.500;11.188;2022-11-20T01:20:28;10.00;99.90
32865;DHT22;19219;44.500;11.188;2022-11-20T01:22:53;10.00;99.90
32865;DHT22;19219;44.500;11.188;2022-11-20T01:25:19;10.00;99.90
32865;DHT22;19219;44.500;11.188;2022-11-20T01:27:44;10.00;99.90
32865;DHT22;19219;44.500;11.188;2022-11-20T01:30:10;10.00;99.90
32865;DHT22;19219;44.500;11.188;2022-11-20T01:32:36;9.90;99.90
32865;DHT22;19219;44.500;11.188;2022-11-20T01:35:02;10.00;99.90
32865;DHT22;19219;44.500;11.188;2022-11-20T01:37:28;10.00;99.90
32865;DHT22;19219;44.500;11.188;2022-11-20T01:39:54;10.00;99.90
32865;DHT22;19219;44.500;11.188;2022-11-20T01:42:19;10.00;99.90
32865;DHT22;19219;44.500;11.188;2022-11-20T01:45:42;10.10;99.90
32865;DHT22;19219;44.500;11.188;2022-11-20T01:47:49;10.10;99.90
32865;DHT22;19219;44.500;11.188;2022-11-20T01:50:21;10.10;99.90
32865;DHT22;19219;44.500;11.188;2022-11-20T01:52:52;10.20;99.90
32865;DHT22;19219;44.500;11.188;2022-11-20T01:55:21;10.20;99.90
32865;DHT22;19219;44.500;11.188;2022-11-20T01:57:47;10.20;99.90
32865;DHT22;19219;44.500;11.188;2022-11-20T02:00:14;10.20;99.90
32865;DHT22;19219;44.500;11.188;2022-11-20T02:02:48;10.20;99.90
32865;DHT22;19219;44.500;11.188;2022-11-20T02:05:19;10.20;99.90
32865;DHT22;19219;44.500;11.188;2022-11-20T02:07:47;10.20;99.90
32865;DHT22;19219;44.500;11.188;2022-11-20T02:10:13;10.20;99.90
32865;DHT22;19219;44.500;11.188;2022-11-20T02:12:39;10.20;99.90
32865;DHT22;19219;44.500;11.188;2022-11-20T02:15:23;10.20;99.90
32865;DHT22;19219;44.500;11.188;2022-11-20T02:17:49;10.20;99.90
32865;DHT22;19219;44.500;11.188;2022-11-20T02:20:14;10.30;99.90
32865;DHT22;19219;44.500;11.188;2022-11-20T02:22:47;10.30;99.90
32865;DHT22;19219;44.500;11.188;2022-11-20T02:25:14;10.40;99.90
32865;DHT22;19219;44.500;11.188;2022-11-20T02:27:40;10.40;99.90
32865;DHT22;19219;44.500;11.188;2022-11-20T02:30:06;10.30;99.90
32865;DHT22;19219;44.500;11.188;2022-11-20T02:32:36;10.40;99.90
32865;DHT22;19219;44.500;11.188;2022-11-20T02:37:47;10.30;99.90
32865;DHT22;19219;44.500;11.188;2022-11-20T02:40:13;10.30;99.90
32865;DHT22;19219;44.500;11.188;2022-11-20T02:42:39;10.30;99.90
32865;DHT22;19219;44.500;11.188;2022-11-20T02:45:04;10.30;99.90
32865;DHT22;19219;44.500;11.188;2022-11-20T02:47:30;10.30;99.90
32865;DHT22;19219;44.500;11.188;2022-11-20T02:49:56;10.30;99.90
32865;DHT22;19219;44.500;11.188;2022-11-20T02:52:22;10.20;99.90
32865;DHT22;19219;44.500;11.188;2022-11-20T02:54:47;10.20;99.90
32865;DHT22;19219;44.500;11.188;2022-11-20T02:57:13;10.20;99.90
32865;DHT22;19219;44.500;11.188;2022-11-20T02:59:38;10.20;99.90
32865;DHT22;19219;44.500;11.188;2022-11-20T03:02:04;10.20;99.90
32865;DHT22;19219;44.500;11.188;2022-11-20T03:04:30;10.20;99.90
32865;DHT22;19219;44.500;11.188;2022-11-20T03:06:55;10.20;99.90
32865;DHT22;19219;44.500;11.188;2022-11-20T03:09:21;10.20;99.90
32865;DHT22;19219;44.500;11.188;2022-11-20T03:11:46;10.20;99.90
32865;DHT22;19219;44.500;11.188;2022-11-20T03:14:12;10.20;99.90
32865;DHT22;19219;44.500;11.188;2022-11-20T03:16:38;10.10;99.90
32865;DHT22;19219;44.500;11.188;2022-11-20T03:19:03;10.10;99.90
32865;DHT22;19219;44.500;11.188;2022-11-20T03:21:29;10.00;99.90
32865;DHT22;19219;44.500;11.188;2022-11-20T03:23:55;10.00;99.90
32865;DHT22;19219;44.500;11.188;2022-11-20T03:26:21;9.90;99.90
32865;DHT22;19219;44.500;11.188;2022-11-20T03:28:48;9.80;99.90
32865;DHT22;19219;44.500;11.188;2022-11-20T03:31:14;9.90;99.90
32865;DHT22;19219;44.500;11.188;2022-11-20T03:33:40;9.80;99.90
32865;DHT22;19219;44.500;11.188;2022-11-20T03:36:07;9.70;99.90
32865;DHT22;19219;44.500;11.188;2022-11-20T03:38:33;9.80;99.90
32865;DHT22;19219;44.500;11.188;2022-11-20T03:41:03;9.70;99.90
32865;DHT22;19219;44.500;11.188;2022-11-20T03:43:29;9.70;99.90
32865;DHT22;19219;44.500;11.188;2022-11-20T03:45:55;9.60;99.90
32865;DHT22;19219;44.500;11.188;2022-11-20T03:48:21;9.60;99.90
32865;DHT22;19219;44.500;11.188;2022-11-20T03:50:46;9.60;99.90
32865;DHT22;19219;44.500;11.188;2022-11-20T03:53:15;9.60;99.90
32865;DHT22;19219;44.500;11.188;2022-11-20T03:55:41;9.50;99.90
32865;DHT22;19219;44.500;11.188;2022-11-20T03:58:07;9.50;99.90
32865;DHT22;19219;44.500;11.188;2022-11-20T04:00:32;9.40;99.90
32865;DHT22;19219;44.500;11.188;2022-11-20T04:02:58;9.40;99.90
32865;DHT22;19219;44.500;11.188;2022-11-20T04:05:24;9.40;99.90
32865;DHT22;19219;44.500;11.188;2022-11-20T04:07:50;9.30;99.90
32865;DHT22;19219;44.500;11.188;2022-11-20T04:10:16;9.30;99.90
32865;DHT22;19219;44.500;11.188;2022-11-20T04:12:41;9.30;99.90
32865;DHT22;19219;44.500;11.188;2022-11-20T04:15:07;9.30;99.90
32865;DHT22;19219;44.500;11.188;2022-11-20T04:17:32;9.30;99.90
32865;DHT22;19219;44.500;11.188;2022-11-20T04:19:58;9.20;99.90
32865;DHT22;19219;44.500;11.188;2022-11-20T04:22:23;9.10;99.90
32865;DHT22;19219;44.500;11.188;2022-11-20T04:24:49;9.10;99.90
32865;DHT22;19219;44.500;11.188;2022-11-20T04:27:14;9.00;99.90
32865;DHT22;19219;44.500;11.188;2022-11-20T04:29:40;9.00;99.90
32865;DHT22;19219;44.500;11.188;2022-11-20T04:32:06;8.90;99.90
32865;DHT22;19219;44.500;11.188;2022-11-20T04:34:31;8.80;99.90
32865;DHT22;19219;44.500;11.188;2022-11-20T04:36:57;8.80;99.90
32865;DHT22;19219;44.500;11.188;2022-11-20T04:39:22;8.70;99.90
32865;DHT22;19219;44.500;11.188;2022-11-20T04:41:48;8.60;99.90
32865;DHT22;19219;44.500;11.188;2022-11-20T04:44:33;8.60;99.90
32865;DHT22;19219;44.500;11.188;2022-11-20T04:46:59;8.60;99.90
32865;DHT22;19219;44.500;11.188;2022-11-20T04:49:24;8.50;99.90
32865;DHT22;19219;44.500;11.188;2022-11-20T04:51:52;8.50;99.90
32865;DHT22;19219;44.500;11.188;2022-11-20T04:54:18;8.60;99.90
32865;DHT22;19219;44.500;11.188;2022-11-20T04:56:49;8.50;99.90
32865;DHT22;19219;44.500;11.188;2022-11-20T04:59:14;8.60;99.90
32865;DHT22;19219;44.500;11.188;2022-11-20T05:01:40;8.60;99.90
32865;DHT22;19219;44.500;11.188;2022-11-20T05:04:05;8.60;99.90
32865;DHT22;19219;44.500;11.188;2022-11-20T05:06:31;8.50;99.90
32865;DHT22;19219;44.500;11.188;2022-11-20T05:08:57;8.40;99.90
32865;DHT22;19219;44.500;11.188;2022-11-20T05:11:22;8.40;99.90
32865;DHT22;19219;44.500;11.188;2022-11-20T05:13:49;8.40;99.90
32865;DHT22;19219;44.500;11.188;2022-11-20T05:16:16;8.30;99.90
32865;DHT22;19219;44.500;11.188;2022-11-20T05:18:42;8.30;99.90
32865;DHT22;19219;44.500;11.188;2022-11-20T05:21:08;8.20;99.90
32865;DHT22;19219;44.500;11.188;2022-11-20T05:23:34;8.20;99.90
32865;DHT22;19219;44.500;11.188;2022-11-20T05:25:59;8.10;99.90
32865;DHT22;19219;44.500;11.188;2022-11-20T05:28:26;8.10;99.90
32865;DHT22;19219;44.500;11.188;2022-11-20T05:30:52;8.10;99.90
32865;DHT22;19219;44.500;11.188;2022-11-20T05:33:17;8.10;99.90
32865;DHT22;19219;44.500;11.188;2022-11-20T05:35:43;8.00;99.90
32865;DHT22;19219;44.500;11.188;2022-11-20T05:38:09;8.00;99.90
32865;DHT22;19219;44.500;11.188;2022-11-20T05:40:35;8.00;99.90
32865;DHT22;19219;44.500;11.188;2022-11-20T05:43:01;8.10;99.90
32865;DHT22;19219;44.500;11.188;2022-11-20T05:45:26;8.10;99.90
32865;DHT22;19219;44.500;11.188;2022-11-20T05:47:52;8.00;99.90
32865;DHT22;19219;44.500;11.188;2022-11-20T05:50:17;8.00;99.90
32865;DHT22;19219;44.500;11.188;2022-11-20T05:52:43;8.00;99.90
32865;DHT22;19219;44.500;11.188;2022-11-20T05:55:08;8.00;99.90
32865;DHT22;19219;44.500;11.188;2022-11-20T05:57:34;8.10;99.90
32865;DHT22;19219;44.500;11.188;2022-11-20T06:00:00;8.00;99.90
32865;DHT22;19219;44.500;11.188;2022-11-20T06:02:25;8.00;99.90
32865;DHT22;19219;44.500;11.188;2022-11-20T06:04:51;8.00;99.90
32865;DHT22;19219;44.500;11.188;2022-11-20T06:07:16;8.00;99.90
32865;DHT22;19219;44.500;11.188;2022-11-20T06:09:42;8.00;99.90
32865;DHT22;19219;44.500;11.188;2022-11-20T06:12:07;8.00;99.90
32865;DHT22;19219;44.500;11.188;2022-11-20T06:14:33;8.00;99.90
32865;DHT22;19219;44.500;11.188;2022-11-20T06:16:59;8.00;99.90
32865;DHT22;19219;44.500;11.188;2022-11-20T06:19:24;8.00;99.90
32865;DHT22;19219;44.500;11.188;2022-11-20T06:21:50;8.00;99.90
32865;DHT22;19219;44.500;11.188;2022-11-20T06:24:16;8.00;99.90
32865;DHT22;19219;44.500;11.188;2022-11-20T06:26:41;8.00;99.90
32865;DHT22;19219;44.500;11.188;2022-11-20T06:29:07;8.00;99.90
32865;DHT22;19219;44.500;11.188;2022-11-20T06:31:32;8.00;99.90
32865;DHT22;19219;44.500;11.188;2022-11-20T06:34:00;8.00;99.90
32865;DHT22;19219;44.500;11.188;2022-11-20T06:36:26;8.00;99.90
32865;DHT22;19219;44.500;11.188;2022-11-20T06:38:51;8.00;99.90
32865;DHT22;19219;44.500;11.188;2022-11-20T06:41:19;8.10;99.90
32865;DHT22;19219;44.500;11.188;2022-11-20T06:43:45;8.00;99.90
32865;DHT22;19219;44.500;11.188;2022-11-20T06:46:11;8.00;99.90
32865;DHT22;19219;44.500;11.188;2022-11-20T06:48:37;7.90;99.90
32865;DHT22;19219;44.500;11.188;2022-11-20T06:51:04;7.90;99.90
32865;DHT22;19219;44.500;11.188;2022-11-20T06:53:30;7.80;99.90
32865;DHT22;19219;44.500;11.188;2022-11-20T06:55:56;7.80;99.90
32865;DHT22;19219;44.500;11.188;2022-11-20T06:58:23;7.80;99.90
32865;DHT22;19219;44.500;11.188;2022-11-20T07:00:48;7.90;99.90
32865;DHT22;19219;44.500;11.188;2022-11-20T07:03:14;8.00;99.90
32865;DHT22;19219;44.500;11.188;2022-11-20T07:05:39;8.00;99.90
32865;DHT22;19219;44.500;11.188;2022-11-20T07:08:05;8.10;99.90
32865;DHT22;19219;44.500;11.188;2022-11-20T07:10:31;8.20;99.90
32865;DHT22;19219;44.500;11.188;2022-11-20T07:12:57;8.30;99.90
32865;DHT22;19219;44.500;11.188;2022-11-20T07:15:23;8.40;99.90
32865;DHT22;19219;44.500;11.188;2022-11-20T07:17:49;8.50;99.90
32865;DHT22;19219;44.500;11.188;2022-11-20T07:20:15;8.50;99.90
32865;DHT22;19219;44.500;11.188;2022-11-20T07:22:40;8.60;99.90
32865;DHT22;19219;44.500;11.188;2022-11-20T07:25:06;8.70;99.90
32865;DHT22;19219;44.500;11.188;2022-11-20T07:27:32;8.80;99.90
32865;DHT22;19219;44.500;11.188;2022-11-20T07:29:58;8.80;99.90
32865;DHT22;19219;44.500;11.188;2022-11-20T07:32:23;8.90;99.90
32865;DHT22;19219;44.500;11.188;2022-11-20T07:34:49;9.00;99.90
32865;DHT22;19219;44.500;11.188;2022-11-20T07:37:14;9.10;99.90
32865;DHT22;19219;44.500;11.188;2022-11-20T07:39:40;9.20;99.90
32865;DHT22;19219;44.500;11.188;2022-11-20T07:42:06;9.40;99.90
32865;DHT22;19219;44.500;11.188;2022-11-20T07:44:32;9.50;99.90
32865;DHT22;19219;44.500;11.188;2022-11-20T07:46:57;9.70;99.90
32865;DHT22;19219;44.500;11.188;2022-11-20T07:49:23;9.80;99.90
32865;DHT22;19219;44.500;11.188;2022-11-20T07:51:52;10.00;99.90
32865;DHT22;19219;44.500;11.188;2022-11-20T07:54:20;10.20;99.90
32865;DHT22;19219;44.500;11.188;2022-11-20T07:56:46;10.40;99.90
32865;DHT22;19219;44.500;11.188;2022-11-20T07:59:12;11.10;99.90
32865;DHT22;19219;44.500;11.188;2022-11-20T08:01:38;12.50;99.90
32865;DHT22;19219;44.500;11.188;2022-11-20T08:04:03;14.40;99.90
32865;DHT22;19219;44.500;11.188;2022-11-20T08:06:29;16.10;99.90
32865;DHT22;19219;44.500;11.188;2022-11-20T08:08:55;18.00;99.90
32865;DHT22;19219;44.500;11.188;2022-11-20T08:11:20;19.80;99.90
32865;DHT22;19219;44.500;11.188;2022-11-20T08:14:04;21.10;99.90
32865;DHT22;19219;44.500;11.188;2022-11-20T08:16:46;22.50;99.90
32865;DHT22;19219;44.500;11.188;2022-11-20T08:19:12;23.50;99.90
32865;DHT22;19219;44.500;11.188;2022-11-20T08:21:38;24.30;99.90
32865;DHT22;19219;44.500;11.188;2022-11-20T08:24:04;24.80;99.90
32865;DHT22;19219;44.500;11.188;2022-11-20T08:26:30;25.40;98.30
32865;DHT22;19219;44.500;11.188;2022-11-20T08:28:56;25.70;96.50
32865;DHT22;19219;44.500;11.188;2022-11-20T08:31:22;25.80;95.20
32865;DHT22;19219;44.500;11.188;2022-11-20T08:33:48;25.50;94.20
32865;DHT22;19219;44.500;11.188;2022-11-20T08:36:13;25.20;94.10
32865;DHT22;19219;44.500;11.188;2022-11-20T08:38:39;25.50;93.20
32865;DHT22;19219;44.500;11.188;2022-11-20T08:41:05;25.50;92.20
32865;DHT22;19219;44.500;11.188;2022-11-20T08:43:49;25.70;92.20
32865;DHT22;19219;44.500;11.188;2022-11-20T08:46:14;25.50;91.60
32865;DHT22;19219;44.500;11.188;2022-11-20T08:48:40;25.20;91.60
32865;DHT22;19219;44.500;11.188;2022-11-20T08:51:05;25.40;91.70
32865;DHT22;19219;44.500;11.188;2022-11-20T08:53:31;25.60;90.60
32865;DHT22;19219;44.500;11.188;2022-11-20T08:55:56;25.80;90.70
32865;DHT22;19219;44.500;11.188;2022-11-20T08:58:22;26.20;90.30
32865;DHT22;19219;44.500;11.188;2022-11-20T09:00:48;25.90;88.00
32865;DHT22;19219;44.500;11.188;2022-11-20T09:03:13;25.90;89.70
32865;DHT22;19219;44.500;11.188;2022-11-20T09:05:39;25.90;89.10
32865;DHT22;19219;44.500;11.188;2022-11-20T09:08:05;26.30;88.90
32865;DHT22;19219;44.500;11.188;2022-11-20T09:10:30;26.60;87.00
32865;DHT22;19219;44.500;11.188;2022-11-20T09:12:56;26.60;86.40
32865;DHT22;19219;44.500;11.188;2022-11-20T09:15:22;26.60;85.90
32865;DHT22;19219;44.500;11.188;2022-11-20T09:17:54;26.80;84.90
32865;DHT22;19219;44.500;11.188;2022-11-20T09:20:20;26.90;85.40
32865;DHT22;19219;44.500;11.188;2022-11-20T09:22:46;27.10;84.30
32865;DHT22;19219;44.500;11.188;2022-11-20T09:25:12;27.70;82.00
32865;DHT22;19219;44.500;11.188;2022-11-20T09:27:38;27.50;81.80
32865;DHT22;19219;44.500;11.188;2022-11-20T09:30:04;27.10;82.20
32865;DHT22;19219;44.500;11.188;2022-11-20T09:32:29;26.90;81.30
32865;DHT22;19219;44.500;11.188;2022-11-20T09:34:55;26.90;81.80
32865;DHT22;19219;44.500;11.188;2022-11-20T09:37:20;27.20;80.60
32865;DHT22;19219;44.500;11.188;2022-11-20T09:39:46;27.20;80.70
32865;DHT22;19219;44.500;11.188;2022-11-20T09:47:30;27.10;80.20
32865;DHT22;19219;44.500;11.188;2022-11-20T09:52:33;26.40;80.10
32865;DHT22;19219;44.500;11.188;2022-11-20T09:55:03;26.40;80.80
32865;DHT22;19219;44.500;11.188;2022-11-20T09:57:35;26.30;80.40
32865;DHT22;19219;44.500;11.188;2022-11-20T10:00:02;26.70;80.30
32865;DHT22;19219;44.500;11.188;2022-11-20T10:10:15;26.50;80.30
32865;DHT22;19219;44.500;11.188;2022-11-20T10:15:31;27.10;80.00
32865;DHT22;19219;44.500;11.188;2022-11-20T10:18:03;26.80;78.20
32865;DHT22;19219;44.500;11.188;2022-11-20T10:20:38;26.40;79.30
32865;DHT22;19219;44.500;11.188;2022-11-20T10:25:49;26.10;82.30
32865;DHT22;19219;44.500;11.188;2022-11-20T10:31:00;26.40;80.70
32865;DHT22;19219;44.500;11.188;2022-11-20T10:33:27;26.60;80.10
32865;DHT22;19219;44.500;11.188;2022-11-20T10:35:57;26.40;79.70
32865;DHT22;19219;44.500;11.188;2022-11-20T10:38:32;26.40;80.50
32865;DHT22;19219;44.500;11.188;2022-11-20T10:41:01;26.00;80.60
32865;DHT22;19219;44.500;11.188;2022-11-20T10:43:46;26.40;80.70
32865;DHT22;19219;44.500;11.188;2022-11-20T10:46:20;26.40;79.80
32865;DHT22;19219;44.500;11.188;2022-11-20T10:48:49;26.50;81.00
32865;DHT22;19219;44.500;11.188;2022-11-20T10:53:45;25.40;82.80
32865;DHT22;19219;44.500;11.188;2022-11-20T10:58:40;24.20;85.40
32865;DHT22;19219;44.500;11.188;2022-11-20T11:01:17;23.00;87.20
32865;DHT22;19219;44.500;11.188;2022-11-20T11:03:43;21.90;90.30
32865;DHT22;19219;44.500;11.188;2022-11-20T11:06:51;21.10;92.00
32865;DHT22;19219;44.500;11.188;2022-11-20T11:08:58;20.40;94.60
32865;DHT22;19219;44.500;11.188;2022-11-20T11:11:34;19.80;96.70
32865;DHT22;19219;44.500;11.188;2022-11-20T11:14:09;19.30;98.30
32865;DHT22;19219;44.500;11.188;2022-11-20T11:16:35;19.00;99.90
32865;DHT22;19219;44.500;11.188;2022-11-20T11:19:04;18.80;99.90
32865;DHT22;19219;44.500;11.188;2022-11-20T11:21:30;18.70;99.90
32865;DHT22;19219;44.500;11.188;2022-11-20T11:23:59;18.60;99.90
32865;DHT22;19219;44.500;11.188;2022-11-20T11:26:25;18.60;99.90
32865;DHT22;19219;44.500;11.188;2022-11-20T11:29:02;18.70;99.90
32865;DHT22;19219;44.500;11.188;2022-11-20T11:31:32;18.30;99.90
32865;DHT22;19219;44.500;11.188;2022-11-20T11:34:12;18.30;99.90
32865;DHT22;19219;44.500;11.188;2022-11-20T11:36:38;18.40;99.90
32865;DHT22;19219;44.500;11.188;2022-11-20T11:39:05;18.40;99.90
32865;DHT22;19219;44.500;11.188;2022-11-20T11:41:32;18.20;99.90
32865;DHT22;19219;44.500;11.188;2022-11-20T11:47:05;17.90;99.90
32865;DHT22;19219;44.500;11.188;2022-11-20T11:49:31;17.80;99.90
32865;DHT22;19219;44.500;11.188;2022-11-20T11:52:16;17.80;99.90
32865;DHT22;19219;44.500;11.188;2022-11-20T11:57:14;17.40;99.90
32865;DHT22;19219;44.500;11.188;2022-11-20T12:02:15;17.00;99.90
32865;DHT22;19219;44.500;11.188;2022-11-20T12:04:46;17.10;99.90
32865;DHT22;19219;44.500;11.188;2022-11-20T12:09:47;16.70;99.90
32865;DHT22;19219;44.500;11.188;2022-11-20T12:12:22;16.60;99.90
32865;DHT22;19219;44.500;11.188;2022-11-20T12:14:49;16.50;99.90
32865;DHT22;19219;44.500;11.188;2022-11-20T12:17:17;16.60;99.90
32865;DHT22;19219;44.500;11.188;2022-11-20T12:19:43;16.60;99.90
32865;DHT22;19219;44.500;11.188;2022-11-20T12:51:00;16.30;99.90
32865;DHT22;19219;44.500;11.188;2022-11-20T12:53:33;16.40;99.90
32865;DHT22;19219;44.500;11.188;2022-11-20T13:00:59;16.30;99.90
32865;DHT22;19219;44.500;11.188;2022-11-20T13:03:37;16.30;99.90
32865;DHT22;19219;44.500;11.188;2022-11-20T13:08:37;15.60;99.90
32865;DHT22;19219;44.500;11.188;2022-11-20T13:11:12;15.60;99.90
32865;DHT22;19219;44.500;11.188;2022-11-20T13:14:29;15.80;99.90
32865;DHT22;19219;44.500;11.188;2022-11-20T13:16:29;15.90;99.90
32865;DHT22;19219;44.500;11.188;2022-11-20T13:18:56;15.90;99.90
32865;DHT22;19219;44.500;11.188;2022-11-20T13:21:22;15.70;99.90
32865;DHT22;19219;44.500;11.188;2022-11-20T13:24:06;15.60;99.90
32865;DHT22;19219;44.500;11.188;2022-11-20T13:26:31;15.60;99.90
32865;DHT22;19219;44.500;11.188;2022-11-20T13:29:11;15.60;99.90
32865;DHT22;19219;44.500;11.188;2022-11-20T13:31:38;15.50;99.90
32865;DHT22;19219;44.500;11.188;2022-11-20T13:34:05;15.30;99.90
32865;DHT22;19219;44.500;11.188;2022-11-20T13:36:31;15.30;99.90
32865;DHT22;19219;44.500;11.188;2022-11-20T13:38:58;15.30;99.90
32865;DHT22;19219;44.500;11.188;2022-11-20T13:46:39;15.00;99.90
32865;DHT22;19219;44.500;11.188;2022-11-20T13:49:07;15.20;99.90
32865;DHT22;19219;44.500;11.188;2022-11-20T13:57:11;15.60;99.90
32865;DHT22;19219;44.500;11.188;2022-11-20T14:01:57;15.60;99.90
32865;DHT22;19219;44.500;11.188;2022-11-20T14:04:44;15.60;99.90
32865;DHT22;19219;44.500;11.188;2022-11-20T14:07:08;15.60;99.90
32865;DHT22;19219;44.500;11.188;2022-11-20T14:09:34;15.60;99.90
32865;DHT22;19219;44.500;11.188;2022-11-20T14:12:01;15.60;99.90
32865;DHT22;19219;44.500;11.188;2022-11-20T14:14:28;15.50;99.90
32865;DHT22;19219;44.500;11.188;2022-11-20T14:17:07;15.20;99.90
32865;DHT22;19219;44.500;11.188;2022-11-20T14:19:33;15.20;99.90
32865;DHT22;19219;44.500;11.188;2022-11-20T14:24:34;15.10;99.90
32865;DHT22;19219;44.500;11.188;2022-11-20T14:26:59;15.00;99.90
32865;DHT22;19219;44.500;11.188;2022-11-20T14:29:34;15.00;99.90
32865;DHT22;19219;44.500;11.188;2022-11-20T14:32:00;15.00;99.90
32865;DHT22;19219;44.500;11.188;2022-11-20T14:34:27;14.90;99.90
32865;DHT22;19219;44.500;11.188;2022-11-20T14:36:56;14.70;99.90
32865;DHT22;19219;44.500;11.188;2022-11-20T14:39:25;14.60;99.90
32865;DHT22;19219;44.500;11.188;2022-11-20T14:41:53;14.50;99.90
32865;DHT22;19219;44.500;11.188;2022-11-20T14:44:23;14.60;99.90
32865;DHT22;19219;44.500;11.188;2022-11-20T14:46:51;14.60;99.90
32865;DHT22;19219;44.500;11.188;2022-11-20T14:49:17;14.80;99.90
32865;DHT22;19219;44.500;11.188;2022-11-20T14:51:43;14.70;99.90
32865;DHT22;19219;44.500;11.188;2022-11-20T14:54:14;14.60;99.90
32865;DHT22;19219;44.500;11.188;2022-11-20T14:56:40;14.60;99.90
32865;DHT22;19219;44.500;11.188;2022-11-20T14:59:05;14.60;99.90
32865;DHT22;19219;44.500;11.188;2022-11-20T15:01:32;14.60;99.90
32865;DHT22;19219;44.500;11.188;2022-11-20T15:04:05;14.60;99.90
32865;DHT22;19219;44.500;11.188;2022-11-20T15:06:31;14.50;99.90
32865;DHT22;19219;44.500;11.188;2022-11-20T15:08:57;14.40;99.90
32865;DHT22;19219;44.500;11.188;2022-11-20T15:11:27;14.30;99.90
32865;DHT22;19219;44.500;11.188;2022-11-20T15:13:53;14.10;99.90
32865;DHT22;19219;44.500;11.188;2022-11-20T15:16:20;14.10;99.90
32865;DHT22;19219;44.500;11.188;2022-11-20T15:18:46;14.10;99.90
32865;DHT22;19219;44.500;11.188;2022-11-20T15:21:15;13.90;99.90
32865;DHT22;19219;44.500;11.188;2022-11-20T15:23:41;13.80;99.90
32865;DHT22;19219;44.500;11.188;2022-11-20T15:26:07;13.70;99.90
32865;DHT22;19219;44.500;11.188;2022-11-20T15:28:35;13.50;99.90
32865;DHT22;19219;44.500;11.188;2022-11-20T15:31:01;13.40;99.90
32865;DHT22;19219;44.500;11.188;2022-11-20T15:33:28;13.20;99.90
32865;DHT22;19219;44.500;11.188;2022-11-20T15:35:53;13.00;99.90
32865;DHT22;19219;44.500;11.188;2022-11-20T15:38:19;12.70;99.90
32865;DHT22;19219;44.500;11.188;2022-11-20T15:40:44;12.50;99.90
32865;DHT22;19219;44.500;11.188;2022-11-20T15:43:10;12.40;99.90
32865;DHT22;19219;44.500;11.188;2022-11-20T15:45:45;12.20;99.90
32865;DHT22;19219;44.500;11.188;2022-11-20T15:48:12;12.10;99.90
32865;DHT22;19219;44.500;11.188;2022-11-20T15:51:01;12.00;99.90
32865;DHT22;19219;44.500;11.188;2022-11-20T15:53:25;11.90;99.90
32865;DHT22;19219;44.500;11.188;2022-11-20T15:55:50;11.70;99.90
32865;DHT22;19219;44.500;11.188;2022-11-20T15:58:16;11.60;99.90
32865;DHT22;19219;44.500;11.188;2022-11-20T16:00:42;11.50;99.90
32865;DHT22;19219;44.500;11.188;2022-11-20T16:03:11;11.30;99.90
32865;DHT22;19219;44.500;11.188;2022-11-20T16:05:37;11.20;99.90
32865;DHT22;19219;44.500;11.188;2022-11-20T16:08:02;11.00;99.90
32865;DHT22;19219;44.500;11.188;2022-11-20T16:10:28;11.00;99.90
32865;DHT22;19219;44.500;11.188;2022-11-20T16:12:54;10.90;99.90
32865;DHT22;19219;44.500;11.188;2022-11-20T16:15:38;10.80;99.90
32865;DHT22;19219;44.500;11.188;2022-11-20T16:18:17;10.70;99.90
32865;DHT22;19219;44.500;11.188;2022-11-20T16:20:43;10.60;99.90
32865;DHT22;19219;44.500;11.188;2022-11-20T16:23:09;10.50;99.90
32865;DHT22;19219;44.500;11.188;2022-11-20T16:25:34;10.40;99.90
32865;DHT22;19219;44.500;11.188;2022-11-20T16:28:00;10.40;99.90
32865;DHT22;19219;44.500;11.188;2022-11-20T16:30:26;10.20;99.90
32865;DHT22;19219;44.500;11.188;2022-11-20T16:32:51;10.10;99.90
32865;DHT22;19219;44.500;11.188;2022-11-20T16:35:17;10.00;99.90
32865;DHT22;19219;44.500;11.188;2022-11-20T16:37:42;9.80;99.90
32865;DHT22;19219;44.500;11.188;2022-11-20T16:40:08;9.70;99.90
32865;DHT22;19219;44.500;11.188;2022-11-20T16:42:34;9.60;99.90
32865;DHT22;19219;44.500;11.188;2022-11-20T16:45:00;9.50;99.90
32865;DHT22;19219;44.500;11.188;2022-11-20T16:47:26;9.40;99.90
32865;DHT22;19219;44.500;11.188;2022-11-20T16:49:51;9.30;99.90
32865;DHT22;19219;44.500;11.188;2022-11-20T16:52:17;9.20;99.90
32865;DHT22;19219;44.500;11.188;2022-11-20T16:54:42;9.10;99.90
32865;DHT22;19219;44.500;11.188;2022-11-20T16:57:08;9.00;99.90
32865;DHT22;19219;44.500;11.188;2022-11-20T16:59:33;8.90;99.90